Aérodrome :
LOGIN :

S'inscrire | Disclaimer

   EN    FR    IT 

 










Légende :    VFR   VFR Marginal   IFR   IFR Intensif   IFR Très Intensif
Visi : 
Plafond : 
>= 8 km
>= 3000ft
5 à 8 km
1000 à 3000 ft
1500m à 5 km
500 à 1000 ft
800 à 1500m
200 à 500 ft
< 800m
< 200 ft
Symboles :   Orages  Brouillard  Fortes neiges  Fortes précipitations  Vent > 20 kt
SIGMETs :   Divers  Orages  Givrage  Turbulence  Onde Orograph.  Cendres Volcan.







- Altitude de l'aérodrome : 325 ft
- Code IATA : BES
- Voir les cartes d'approche


LFRB - Brest

DERNIER METAR :
  • 221000Z AUTO 20007KT 170V240 CAVOK 18/09 Q1020 NOSIG

METARs EXPIRÉS :
  • 220930Z AUTO 19005KT 130V240 CAVOK 18/09 Q1020 NOSIG
  • 220900Z AUTO 18005KT 110V230 CAVOK 17/09 Q1020 NOSIG
  • 220830Z AUTO 19007KT CAVOK 17/08 Q1020 NOSIG
  • 220800Z AUTO VRB02KT CAVOK 16/08 Q1020 NOSIG
  • 220730Z AUTO 17004KT 120V210 CAVOK 14/08 Q1020 NOSIG

TAF TAF LFRB
Valide du 22 à 06h jusqu'au 23 à 12h UTC


220500Z 2206/2312 12002KT CAVOK
BECMG 2212/2214 23010KT
BECMG 2221/2223 VRB02KT
BECMG 2300/2303 4000 BR
PROB40
TEMPO 2303/2306 0400 FG VV///
BECMG 2308/2310 9999 NSW FEW012
ATIS : +33 2 98 32 02 71
Pas de NOTAMs connus pour ce terrain.



MET'MAP, la Météo Aéronautique d'un coup d'oeil ! - Copyright ORBIFLY Décembre 2007 - Disclaimer

ORBIFLY MET'MAP TEAM :

Programmation & Développement : Alexandra Zaïnal
Conception & Développement : Baudouin d'Aumeries
Co-Programmation & Développement : Marc-Olivier Méhu
Soutien technique & logistique : Manuel Goepfert

Contact : metmap@orbifly.com




SOURCES & CREDITS :

   NOAA